createdAt,value
2017-08-17T00:00:25.275Z,20.20
2017-08-17T00:03:27.375Z,20.10
2017-08-17T00:06:28.771Z,20.10
2017-08-17T00:09:30.173Z,20.10
2017-08-17T00:12:31.595Z,20.10
2017-08-17T00:15:33.785Z,20.00
2017-08-17T00:18:35.211Z,20.00
2017-08-17T00:21:37.311Z,19.80
2017-08-17T00:24:38.704Z,19.80
2017-08-17T00:27:40.076Z,20.20
2017-08-17T00:30:41.476Z,19.90
2017-08-17T00:33:42.862Z,19.90
2017-08-17T00:36:44.356Z,19.90
2017-08-17T00:39:45.778Z,19.40
2017-08-17T00:42:47.320Z,20.10
2017-08-17T00:45:48.747Z,20.10
2017-08-17T00:48:50.147Z,20.10
2017-08-17T00:51:52.289Z,19.90
2017-08-17T00:54:53.706Z,19.90
2017-08-17T00:57:55.166Z,19.90
2017-08-17T01:00:56.642Z,19.90
2017-08-17T01:03:58.287Z,20.00
2017-08-17T01:06:59.716Z,19.90
2017-08-17T01:10:01.095Z,19.90
2017-08-17T01:13:02.588Z,20.10
2017-08-17T01:16:04.821Z,19.90
2017-08-17T01:19:06.335Z,19.90
2017-08-17T01:22:07.801Z,19.70
2017-08-17T01:25:09.354Z,19.80
2017-08-17T01:28:10.870Z,19.80
2017-08-17T01:31:13.171Z,19.90
2017-08-17T01:34:14.561Z,19.80
2017-08-17T01:37:16.021Z,19.60
2017-08-17T01:40:17.516Z,19.90
2017-08-17T01:43:19.810Z,19.70
2017-08-17T01:46:21.266Z,19.80
2017-08-17T01:49:22.742Z,19.90
2017-08-17T01:52:24.204Z,19.70
2017-08-17T01:55:25.640Z,19.50
2017-08-17T01:58:27.299Z,19.70
2017-08-17T02:01:28.844Z,19.80
2017-08-17T02:04:30.311Z,19.70
2017-08-17T02:07:31.719Z,19.60
2017-08-17T02:10:34.082Z,19.70
2017-08-17T02:13:36.289Z,19.80
2017-08-17T02:16:37.695Z,19.70
2017-08-17T02:19:39.799Z,19.80
2017-08-17T02:22:41.190Z,19.00
2017-08-17T02:25:42.590Z,19.60
2017-08-17T02:28:43.994Z,19.80
2017-08-17T02:31:45.542Z,19.90
2017-08-17T02:34:46.983Z,19.80
2017-08-17T02:40:56.939Z,19.60
2017-08-17T02:43:58.382Z,18.80
2017-08-17T02:46:59.752Z,19.60
2017-08-17T02:50:01.163Z,19.00
2017-08-17T02:53:02.532Z,19.40
2017-08-17T02:56:03.987Z,19.10
2017-08-17T02:59:05.365Z,19.20
2017-08-17T03:02:06.786Z,19.40
2017-08-17T03:05:08.199Z,19.30
2017-08-17T03:08:09.585Z,19.10
2017-08-17T03:11:10.972Z,19.40
2017-08-17T03:14:12.366Z,19.50
2017-08-17T03:17:14.510Z,19.40
2017-08-17T03:20:15.879Z,19.70
2017-08-17T03:23:18.041Z,19.40
2017-08-17T03:26:19.457Z,19.30
2017-08-17T03:29:21.827Z,19.40
2017-08-17T03:32:24.544Z,19.50
2017-08-17T03:35:25.990Z,19.20
2017-08-17T03:38:27.373Z,18.90
2017-08-17T03:41:28.948Z,19.40
2017-08-17T03:44:30.370Z,19.50
2017-08-17T03:47:32.545Z,19.60
2017-08-17T03:50:34.788Z,19.60
2017-08-17T03:53:36.164Z,19.10
2017-08-17T03:56:38.278Z,19.60
2017-08-17T03:59:39.639Z,19.50
2017-08-17T04:02:41.054Z,19.50
2017-08-17T04:05:42.435Z,19.40
2017-08-17T04:08:43.835Z,18.60
2017-08-17T04:11:45.262Z,19.20
2017-08-17T04:14:46.756Z,19.40
2017-08-17T04:17:48.266Z,19.40
2017-08-17T04:20:49.603Z,19.50
2017-08-17T04:23:51.024Z,19.50
2017-08-17T04:26:52.410Z,19.60
2017-08-17T04:29:53.874Z,19.50
2017-08-17T04:32:55.251Z,19.60
2017-08-17T04:35:57.481Z,19.60
2017-08-17T04:38:58.874Z,19.60
2017-08-17T04:42:00.987Z,19.60
2017-08-17T04:45:02.391Z,19.00
2017-08-17T04:48:04.516Z,19.50
2017-08-17T04:51:06.283Z,19.50
2017-08-17T04:57:40.452Z,19.50
2017-08-17T05:00:42.622Z,19.30
2017-08-17T05:03:44.031Z,19.40
2017-08-17T05:06:45.407Z,19.30
2017-08-17T05:09:46.860Z,19.30
2017-08-17T05:12:48.356Z,19.30
2017-08-17T05:15:49.670Z,19.30
2017-08-17T05:18:51.062Z,19.30
2017-08-17T05:21:52.409Z,19.40
2017-08-17T05:24:53.758Z,19.40
2017-08-17T05:27:55.119Z,19.30
2017-08-17T05:30:56.436Z,19.30
2017-08-17T05:33:58.526Z,19.40
2017-08-17T05:36:59.838Z,19.40
2017-08-17T05:40:01.183Z,19.40
2017-08-17T05:43:03.255Z,19.40
2017-08-17T05:46:04.611Z,19.50
2017-08-17T05:49:06.710Z,19.70
2017-08-17T05:52:08.600Z,19.60
2017-08-17T05:55:09.971Z,19.60
2017-08-17T05:58:11.342Z,19.60
2017-08-17T06:01:12.768Z,19.70
2017-08-17T06:04:14.138Z,19.70
2017-08-17T06:07:15.445Z,19.80
2017-08-17T06:10:16.868Z,19.90
2017-08-17T06:13:18.200Z,20.10
2017-08-17T06:16:20.388Z,20.10
2017-08-17T06:19:21.759Z,19.30
2017-08-17T06:22:23.099Z,20.10
2017-08-17T06:25:24.445Z,20.10
2017-08-17T06:28:27.511Z,20.10
2017-08-17T06:31:28.963Z,20.10
2017-08-17T06:34:31.092Z,20.10
2017-08-17T06:37:32.430Z,20.10
2017-08-17T06:40:33.785Z,20.20
2017-08-17T06:43:35.139Z,20.20
2017-08-17T06:46:36.482Z,20.20
2017-08-17T06:49:38.094Z,20.20
2017-08-17T06:52:40.232Z,20.50
2017-08-17T06:55:41.610Z,20.40
2017-08-17T06:58:43.762Z,20.50
2017-08-17T07:01:45.193Z,20.50
2017-08-17T07:04:46.546Z,20.60
2017-08-17T07:07:47.882Z,20.60
2017-08-17T07:10:49.276Z,20.70
2017-08-17T07:13:50.594Z,20.70
2017-08-17T07:16:51.988Z,20.90
2017-08-17T07:19:54.069Z,20.90
2017-08-17T07:22:55.438Z,20.90
2017-08-17T07:25:56.761Z,20.90
2017-08-17T07:28:58.813Z,21.00
2017-08-17T07:32:01.001Z,21.00
2017-08-17T07:35:02.357Z,21.00
2017-08-17T07:38:03.665Z,21.00
2017-08-17T07:41:05.035Z,21.00
2017-08-17T07:44:07.111Z,21.10
2017-08-17T07:47:09.277Z,21.20
2017-08-17T07:50:10.638Z,21.20
2017-08-17T07:53:11.976Z,21.20
2017-08-17T07:56:14.092Z,21.30
2017-08-17T07:59:15.538Z,21.30
2017-08-17T08:02:16.887Z,21.30
2017-08-17T08:05:18.607Z,21.30
2017-08-17T08:08:20.717Z,21.30
2017-08-17T08:11:22.074Z,21.30
2017-08-17T08:14:23.404Z,21.40
2017-08-17T08:17:24.800Z,21.30
2017-08-17T08:20:26.183Z,21.30
2017-08-17T08:23:28.233Z,21.30
2017-08-17T08:26:30.326Z,21.50
2017-08-17T08:29:31.632Z,21.40
2017-08-17T08:32:33.025Z,21.50
2017-08-17T08:35:34.354Z,21.60
2017-08-17T08:38:36.425Z,21.90
2017-08-17T08:41:38.545Z,21.80
2017-08-17T08:44:39.978Z,21.80
2017-08-17T08:47:41.392Z,21.80
2017-08-17T08:50:43.666Z,21.80
2017-08-17T08:53:45.041Z,21.80
2017-08-17T08:56:46.419Z,21.80
2017-08-17T08:59:47.898Z,21.70
2017-08-17T09:02:49.287Z,21.80
2017-08-17T09:05:50.670Z,21.80
2017-08-17T09:08:52.025Z,21.90
2017-08-17T09:11:53.409Z,21.80
2017-08-17T09:14:54.774Z,21.90
2017-08-17T09:17:56.920Z,21.90
2017-08-17T09:20:58.393Z,22.00
2017-08-17T09:24:00.501Z,21.90
2017-08-17T09:27:02.018Z,21.90
2017-08-17T09:30:04.098Z,21.90
2017-08-17T09:33:05.569Z,21.90
2017-08-17T09:36:06.982Z,21.90
2017-08-17T09:42:43.436Z,21.90
2017-08-17T09:45:44.793Z,22.00
2017-08-17T09:48:46.220Z,22.20
2017-08-17T09:51:47.631Z,22.00
2017-08-17T09:54:49.041Z,22.00
2017-08-17T09:57:50.513Z,22.20
2017-08-17T10:00:51.956Z,21.70
2017-08-17T10:03:53.438Z,22.10
2017-08-17T10:06:54.989Z,22.10
2017-08-17T10:09:56.391Z,22.10
2017-08-17T10:12:57.800Z,22.20
2017-08-17T10:15:59.377Z,22.20
2017-08-17T10:19:01.556Z,22.20
2017-08-17T10:22:02.938Z,22.20
2017-08-17T10:25:04.331Z,22.00
2017-08-17T10:28:06.477Z,22.40
2017-08-17T10:31:07.955Z,22.30
2017-08-17T10:34:09.379Z,22.40
2017-08-17T10:37:10.837Z,22.30
2017-08-17T10:40:12.886Z,22.40
2017-08-17T10:43:14.418Z,22.20
2017-08-17T10:46:15.770Z,22.40
2017-08-17T10:49:17.200Z,22.40
2017-08-17T10:52:19.326Z,22.40
2017-08-17T10:55:20.729Z,22.40
